»·PEaware :: N728CS KEGE-KAMA

N728CS :: KEGE-KAMA

FLIGHT INFORMATION

Flight Status: Arrived
Operator: Privately registered:
United States
More flights under this callsign
Pilot: Chandler S. (807)
Aircraft: BEECH AIRCRAFT PREMIER
(PRM1)
More flights by this aircraft type
Origin: KEGE Eagle Co Regl
United States
Destination: KAMA Amarillo Intl
United States
More flights between these airports :: More routes between these airports
Route: BEVVR1 RUBAY COORZ BRK V611 PUB V81 DHT PNH
File this flight plan on PilotEdge
Remarks:
Altitude:
(Current/Filed)
39,000ft
Speed:
(Current/Filed)
400kts
Departed: 17-Jul-19 02:29 PM
Arrived: 17-Jul-19 03:39 PM
Distance/Time
Traveled:
363nm/1:10
Distance/Time
To Go:
Arrived

Flight Plot

Page will automatically refresh every two minutes.

Flight plan parsing failed; only flown route is shown


Map Options




Map Legend


Flown Route
Filed Route
Departure Airport
Arrival Airport
Navaid (VOR, NDB)
Fix

Horizontal Profiles

Position Reports

Time Latitude Longitude Heading Altitude Ground
Speed
17-Jul-19 14:08 39.640904 -106.910919 140 6547ft 0kts
17-Jul-19 14:09 39.640904 -106.910919 140 6547ft 0kts
17-Jul-19 14:10 39.640904 -106.910919 140 6547ft 0kts
17-Jul-19 14:11 39.640904 -106.910919 140 6547ft 0kts
17-Jul-19 14:12 39.640904 -106.910919 140 6547ft 0kts
17-Jul-19 14:13 39.640904 -106.910919 140 6547ft 0kts
17-Jul-19 14:14 39.640904 -106.910919 140 6547ft 0kts
17-Jul-19 14:15 39.640904 -106.910919 140 6547ft 0kts
17-Jul-19 14:16 39.640904 -106.910919 140 6547ft 0kts
17-Jul-19 14:17 39.640904 -106.910919 140 6547ft 0kts
17-Jul-19 14:18 39.640904 -106.910919 140 6547ft 0kts
17-Jul-19 14:19 39.640904 -106.910919 140 6547ft 0kts
17-Jul-19 14:20 39.640904 -106.910919 140 6547ft 0kts
17-Jul-19 14:21 39.640904 -106.910919 140 6547ft 0kts
17-Jul-19 14:22 39.640904 -106.910919 140 6547ft 0kts
17-Jul-19 14:23 39.640904 -106.910919 140 6547ft 0kts
17-Jul-19 14:24 39.640904 -106.910919 140 6547ft 0kts
17-Jul-19 14:25 39.642525 -106.908385 55 6547ft 16kts
17-Jul-19 14:26 39.643495 -106.903744 350 6547ft 0kts
17-Jul-19 14:27 39.644009 -106.903918 315 6547ft 12kts
17-Jul-19 14:28 39.640360 -106.941871 256 7535ft 165kts
17-Jul-19 14:29 39.600326 -106.971616 212 10618ft 183kts
17-Jul-19 14:30 39.580884 -107.026744 267 13659ft 187kts
17-Jul-19 14:31 39.601180 -107.086414 309 16590ft 195kts
17-Jul-19 14:32 39.647979 -107.098967 52 19235ft 221kts
17-Jul-19 14:33 39.645520 -107.016349 122 21057ft 245kts
17-Jul-19 14:34 39.604531 -106.942564 127 22830ft 267kts
17-Jul-19 14:35 39.562026 -106.857695 129 24569ft 289kts
17-Jul-19 14:36 39.517376 -106.769027 131 26377ft 299kts
17-Jul-19 14:37 39.471507 -106.678167 131 28197ft 303kts
17-Jul-19 14:38 39.425169 -106.586592 132 30031ft 300kts
17-Jul-19 14:39 39.380000 -106.497531 133 31839ft 292kts
17-Jul-19 14:40 39.336523 -106.412074 134 33623ft 276kts
17-Jul-19 14:41 39.293090 -106.327253 135 34642ft 287kts
17-Jul-19 14:42 39.248659 -106.240330 135 35723ft 290kts
17-Jul-19 14:43 39.204463 -106.154129 136 36881ft 285kts
17-Jul-19 14:44 39.161384 -106.070236 136 37982ft 275kts
17-Jul-19 14:45 39.119474 -105.989106 135 38841ft 269kts
17-Jul-19 14:46 39.078141 -105.909373 136 39301ft 275kts
17-Jul-19 14:47 39.033334 -105.823119 135 39287ft 305kts
17-Jul-19 14:48 38.983797 -105.727940 132 39288ft 335kts
17-Jul-19 14:49 38.929842 -105.624322 130 39290ft 362kts
17-Jul-19 14:50 38.871636 -105.513058 129 39243ft 388kts
17-Jul-19 14:51 38.809770 -105.395039 129 39148ft 411kts
17-Jul-19 14:52 38.744065 -105.270294 129 39082ft 429kts
17-Jul-19 14:53 38.676695 -105.142944 129 39072ft 434kts
17-Jul-19 14:54 38.608697 -105.014864 129 39074ft 434kts
17-Jul-19 14:55 38.540721 -104.887428 130 39074ft 433kts
17-Jul-19 14:56 38.472855 -104.760710 130 39057ft 432kts
17-Jul-19 14:57 38.404963 -104.634391 130 39004ft 432kts
17-Jul-19 14:58 38.336932 -104.508293 130 38993ft 431kts
17-Jul-19 14:59 38.258241 -104.398007 149 38995ft 414kts
17-Jul-19 15:00 38.164704 -104.314759 151 38985ft 412kts
17-Jul-19 15:01 38.070860 -104.231990 151 38985ft 411kts
17-Jul-19 15:02 37.977262 -104.149689 151 38984ft 410kts
17-Jul-19 15:03 37.884918 -104.068759 151 38990ft 409kts
17-Jul-19 15:04 37.790794 -103.986542 151 38994ft 410kts
17-Jul-19 15:05 37.696976 -103.904825 151 39002ft 410kts
17-Jul-19 15:06 37.603277 -103.823490 151 39041ft 410kts
17-Jul-19 15:07 37.508898 -103.741787 151 39001ft 411kts
17-Jul-19 15:08 37.414311 -103.660178 151 38975ft 412kts
17-Jul-19 15:09 37.319638 -103.578752 151 39014ft 411kts
17-Jul-19 15:10 37.225347 -103.497917 151 39016ft 411kts
17-Jul-19 15:11 37.130716 -103.417022 151 39043ft 411kts
17-Jul-19 15:12 37.036444 -103.336876 150 39051ft 412kts
17-Jul-19 15:13 36.941587 -103.256281 149 39051ft 413kts
17-Jul-19 15:14 36.848009 -103.176850 149 39056ft 414kts
17-Jul-19 15:15 36.752905 -103.096579 148 39056ft 414kts
17-Jul-19 15:16 36.657333 -103.016128 148 39055ft 413kts
17-Jul-19 15:17 36.562187 -102.936250 147 39055ft 412kts
17-Jul-19 15:18 36.466019 -102.855743 147 37856ft 416kts
17-Jul-19 15:19 36.370730 -102.776247 147 36263ft 410kts
17-Jul-19 15:20 36.277720 -102.698883 147 34375ft 399kts
17-Jul-19 15:21 36.186038 -102.622835 147 32163ft 393kts
17-Jul-19 15:22 36.096371 -102.548320 144 29945ft 385kts
17-Jul-19 15:23 36.013377 -102.466508 143 27731ft 377kts
17-Jul-19 15:24 35.932206 -102.385546 143 25519ft 369kts
17-Jul-19 15:25 35.855232 -102.308958 144 23694ft 356kts
17-Jul-19 15:26 35.779073 -102.233381 144 21980ft 344kts
17-Jul-19 15:27 35.704997 -102.160058 144 20269ft 336kts
17-Jul-19 15:28 35.632804 -102.088766 144 18570ft 331kts
17-Jul-19 15:29 35.560978 -102.018014 145 16856ft 326kts
17-Jul-19 15:30 35.490481 -101.948729 145 15149ft 322kts
17-Jul-19 15:31 35.430964 -101.874560 107 13091ft 287kts
17-Jul-19 15:32 35.415738 -101.783661 106 10641ft 256kts
17-Jul-19 15:33 35.394130 -101.705326 116 8235ft 235kts
17-Jul-19 15:34 35.355787 -101.653247 155 6272ft 203kts
17-Jul-19 15:35 35.304883 -101.635613 194 5753ft 199kts
17-Jul-19 15:36 35.259807 -101.664923 220 4814ft 159kts
17-Jul-19 15:37 35.231101 -101.699939 220 3674ft 132kts
17-Jul-19 15:38 35.219135 -101.712025 133 3613ft 14kts
17-Jul-19 15:39 35.217340 -101.709374 94 3613ft 14kts
17-Jul-19 15:40 35.216859 -101.708943 225 3613ft 0kts
17-Jul-19 15:41 35.216859 -101.708943 225 3613ft 0kts
17-Jul-19 15:42 35.216859 -101.708943 225 3613ft 0kts

Navigation Log

Ident Type
Flight plan parsing failed, navigation log unavailable